Time;durP1;ratioP1;P1;durP2;ratioP2;P2;SDS_P1;SDS_P2;PMS_P1;PMS_P2;Temp;Humidity;BMP_temperature;BMP_pressure;BME280_temperature;BME280_humidity;BME280_pressure;Samples;Min_cycle;Max_cycle;Signal;HPM_P1;HPM_P2
2022/12/16 00:00:28;;;;;;;15.75;10.85;;;;;;;18.08;32.87;100880.34;5023547;28;20029;-72
2022/12/16 00:02:54;;;;;;;15.43;10.25;;;;;;;18.04;32.80;100870.16;5022305;28;20464;-71
2022/12/16 00:05:19;;;;;;;16.55;10.63;;;;;;;18.04;32.70;100876.28;5022339;28;20048;-73
2022/12/16 00:07:48;;;;;;;15.13;10.20;;;;;;;18.02;32.64;100869.47;5022707;28;20560;-72
2022/12/16 00:10:13;;;;;;;15.68;10.20;;;;;;;18.04;32.84;100876.28;5022977;28;20409;-71
2022/12/16 00:12:39;;;;;;;17.17;10.65;;;;;;;17.99;32.88;100873.19;5022400;28;20029;-72
2022/12/16 00:15:04;;;;;;;16.33;10.13;;;;;;;17.99;32.92;100864.44;5022013;28;20033;-70
2022/12/16 00:17:30;;;;;;;15.80;9.85;;;;;;;18.02;32.75;100872.09;5023608;28;20064;-71
2022/12/16 00:19:55;;;;;;;18.70;10.38;;;;;;;17.97;33.21;100864.53;5022580;28;20052;-70
2022/12/16 00:22:21;;;;;;;16.85;9.95;;;;;;;17.95;33.00;100863.84;5023178;28;20142;-71
2022/12/16 00:24:46;;;;;;;16.55;10.57;;;;;;;17.94;32.79;100857.75;5022912;28;20091;-70
2022/12/16 00:27:12;;;;;;;16.38;10.35;;;;;;;17.94;33.07;100859.53;5022538;28;20049;-71
2022/12/16 00:29:37;;;;;;;17.48;9.57;;;;;;;17.98;32.93;100862.78;5023075;28;20069;-71
2022/12/16 00:32:02;;;;;;;17.02;10.38;;;;;;;17.97;33.14;100861.91;5022544;28;20388;-71
2022/12/16 00:34:28;;;;;;;21.45;10.07;;;;;;;17.93;32.64;100865.78;5023045;28;20033;-71
2022/12/16 00:36:53;;;;;;;15.77;9.90;;;;;;;17.93;32.73;100865.78;5022642;28;20103;-71
2022/12/16 00:39:18;;;;;;;16.63;9.38;;;;;;;17.93;32.96;100858.69;5037586;28;20155;-71
2022/12/16 00:41:44;;;;;;;15.75;9.82;;;;;;;17.91;33.05;100862.41;5023202;28;20037;-70
2022/12/16 00:44:09;;;;;;;16.75;10.15;;;;;;;17.94;33.08;100862.16;5023293;28;20079;-70
2022/12/16 00:46:34;;;;;;;16.27;9.82;;;;;;;17.92;32.91;100862.28;5022438;28;20461;-71
2022/12/16 00:49:00;;;;;;;16.20;9.88;;;;;;;17.90;33.18;100858.09;5022506;28;20029;-74
2022/12/16 00:51:25;;;;;;;14.02;9.75;;;;;;;17.91;32.94;100863.25;5022817;28;20033;-71
2022/12/16 00:53:50;;;;;;;18.35;10.20;;;;;;;17.88;33.20;100857.38;5022822;28;20034;-71
2022/12/16 00:56:18;;;;;;;16.30;8.75;;;;;;;17.90;33.12;100869.47;5021809;28;20042;-73
2022/12/16 00:58:44;;;;;;;13.68;9.25;;;;;;;17.87;33.21;100866.22;5022343;28;20132;-74
2022/12/16 01:01:09;;;;;;;15.40;9.65;;;;;;;17.89;33.05;100870.44;5022761;28;20100;-71
2022/12/16 01:03:35;;;;;;;15.82;9.55;;;;;;;17.87;33.34;100874.97;5022244;28;20470;-72
2022/12/16 01:06:00;;;;;;;14.55;9.65;;;;;;;17.87;33.37;100871.50;5022636;28;20049;-71
2022/12/16 01:08:26;;;;;;;14.80;9.38;;;;;;;17.83;33.27;100873.56;5021909;28;20603;-74
2022/12/16 01:10:53;;;;;;;15.07;9.43;;;;;;;17.84;33.15;100879.66;5022194;28;20037;-73
2022/12/16 01:13:20;;;;;;;14.00;9.10;;;;;;;17.86;33.64;100886.47;5021953;28;20094;-71
2022/12/16 01:15:45;;;;;;;16.63;9.68;;;;;;;17.85;33.66;100882.16;5022084;28;20974;-71
2022/12/16 01:18:11;;;;;;;14.90;9.00;;;;;;;17.84;33.45;100880.47;5022182;28;20029;-71
2022/12/16 01:20:37;;;;;;;13.63;8.98;;;;;;;17.85;33.26;100890.06;5022227;28;20493;-72
2022/12/16 01:23:02;;;;;;;13.68;9.18;;;;;;;17.84;33.24;100887.56;5020485;28;20036;-71
2022/12/16 01:25:28;;;;;;;14.85;8.93;;;;;;;17.85;33.68;100897.13;5020754;28;20440;-70
2022/12/16 01:27:53;;;;;;;13.40;9.65;;;;;;;17.84;33.46;100895.47;5021505;28;20071;-74
2022/12/16 01:30:19;;;;;;;14.18;8.93;;;;;;;17.81;33.78;100899.16;5021960;28;20489;-73
2022/12/16 01:32:44;;;;;;;13.00;9.25;;;;;;;17.84;33.75;100906.00;5034765;28;20413;-71
2022/12/16 01:35:09;;;;;;;13.20;8.93;;;;;;;17.79;33.59;100903.75;5021411;28;20500;-72
2022/12/16 01:37:35;;;;;;;12.63;8.82;;;;;;;17.82;33.42;100921.13;5020675;28;20058;-71
2022/12/16 01:40:00;;;;;;;14.05;8.77;;;;;;;17.79;33.83;100910.81;5020854;28;20041;-70
2022/12/16 01:42:29;;;;;;;16.17;9.32;;;;;;;17.83;33.68;100917.50;5021535;28;20037;-70
2022/12/16 01:44:55;;;;;;;14.98;8.90;;;;;;;17.79;33.69;100910.81;5021868;28;20033;-71
2022/12/16 01:47:27;;;;;;;14.90;9.85;;;;;;;17.80;33.50;100926.50;5021636;28;20040;-70
2022/12/16 01:50:01;;;;;;;13.98;8.27;;;;;;;17.80;33.67;100931.78;5021813;28;20910;-70
2022/12/16 01:52:31;;;;;;;15.00;9.23;;;;;;;17.81;33.87;100929.97;5021514;28;20037;-71
2022/12/16 01:55:02;;;;;;;13.05;8.88;;;;;;;17.77;33.82;100927.59;5020022;28;20047;-71
2022/12/16 01:57:35;;;;;;;15.95;8.55;;;;;;;17.78;33.69;100923.13;5021469;28;20048;-73
2022/12/16 02:00:02;;;;;;;12.88;8.98;;;;;;;17.75;34.06;100926.88;5021327;28;20033;-71
2022/12/16 02:02:27;;;;;;;16.08;8.75;;;;;;;17.80;33.76;100921.25;5021392;28;20041;-73
2022/12/16 02:07:37;;;;;;;14.77;9.48;;;;;;;17.73;33.82;100928.78;5021346;28;20068;-71
2022/12/16 02:10:03;;;;;;;16.58;8.77;;;;;;;17.78;33.69;100946.88;5021015;28;20037;-71
2022/12/16 02:12:53;;;;;;;13.65;8.68;;;;;;;17.77;34.06;100942.56;5021248;28;20046;-71
2022/12/16 02:15:19;;;;;;;14.38;9.20;;;;;;;17.76;34.07;100941.72;5021094;28;20040;-71
2022/12/16 02:18:09;;;;;;;14.52;8.85;;;;;;;17.77;34.06;100948.66;4995312;28;20029;-70
2022/12/16 02:21:04;;;;;;;13.50;8.45;;;;;;;17.74;34.09;100948.91;5021175;28;20025;-72
2022/12/16 02:23:41;;;;;;;14.30;9.15;;;;;;;17.76;33.98;100949.63;5021303;28;20033;-72
2022/12/16 02:26:43;;;;;;;13.88;8.32;;;;;;;17.75;34.26;100947.09;5019759;28;20037;-72
2022/12/16 02:29:35;;;;;;;13.43;8.45;;;;;;;17.76;34.00;100954.91;5021068;28;20037;-71
2022/12/16 02:32:36;;;;;;;14.05;7.80;;;;;;;17.74;34.02;100951.53;5020815;28;20048;-70
2022/12/16 02:35:29;;;;;;;13.98;8.40;;;;;;;17.75;34.03;100963.78;4920863;29;20075;-71
2022/12/16 02:38:20;;;;;;;15.48;8.68;;;;;;;17.71;34.29;100950.94;5018086;28;20060;-71
2022/12/16 02:40:56;;;;;;;13.48;9.73;;;;;;;17.75;34.36;100965.56;5020755;28;20507;-72
2022/12/16 02:43:46;;;;;;;16.67;9.00;;;;;;;17.74;34.18;100971.81;5018905;28;20915;-74
2022/12/16 02:46:11;;;;;;;13.93;8.75;;;;;;;17.68;34.03;100954.66;5020747;28;20378;-71
2022/12/16 02:48:37;;;;;;;12.82;8.43;;;;;;;17.69;33.92;100960.75;5020657;28;20041;-71
2022/12/16 02:51:02;;;;;;;13.65;8.30;;;;;;;17.70;34.15;100960.63;5020457;28;20057;-72
2022/12/16 02:53:30;;;;;;;15.00;9.15;;;;;;;17.70;34.21;100967.72;5020857;28;20045;-72
2022/12/16 02:56:11;;;;;;;16.23;8.85;;;;;;;17.67;34.17;100963.50;5020752;28;20056;-72
2022/12/16 02:59:02;;;;;;;14.30;8.95;;;;;;;17.65;34.15;100959.34;5020756;28;20102;-74
2022/12/16 03:01:42;;;;;;;13.73;8.77;;;;;;;17.68;34.16;100974.91;5021130;28;20543;-72
2022/12/16 03:04:14;;;;;;;16.55;8.93;;;;;;;17.69;34.13;100969.53;5020952;28;20040;-72
2022/12/16 03:06:46;;;;;;;12.80;8.20;;;;;;;17.65;34.29;100968.06;5020515;28;20781;-72
2022/12/16 03:09:16;;;;;;;12.75;8.48;;;;;;;17.66;34.37;100972.41;5020061;28;20072;-72
2022/12/16 03:11:43;;;;;;;13.57;8.35;;;;;;;17.63;34.09;100972.63;5020468;28;20041;-71
2022/12/16 03:14:13;;;;;;;15.18;9.52;;;;;;;17.67;34.48;100971.41;5020171;28;20033;-70
2022/12/16 03:16:39;;;;;;;13.27;9.38;;;;;;;17.65;34.12;100967.25;5020390;28;20041;-72
2022/12/16 03:19:08;;;;;;;15.20;9.35;;;;;;;17.62;34.18;100968.31;5020722;28;20029;-71
2022/12/16 03:21:39;;;;;;;12.07;8.98;;;;;;;17.62;34.28;100970.94;5020507;28;20029;-72
2022/12/16 03:24:09;;;;;;;14.32;9.18;;;;;;;17.62;34.24;100978.00;5020408;28;20477;-72
2022/12/16 03:26:42;;;;;;;14.07;9.38;;;;;;;17.62;34.35;100978.84;5020487;28;20049;-70
2022/12/16 03:29:13;;;;;;;13.88;9.13;;;;;;;17.58;34.40;100969.50;5019819;28;20041;-71
2022/12/16 03:31:38;;;;;;;14.85;9.52;;;;;;;17.64;34.39;100989.28;5020599;28;21044;-71
2022/12/16 03:34:31;;;;;;;17.48;9.70;;;;;;;17.60;34.45;100983.41;5020133;28;20067;-69
2022/12/16 03:37:01;;;;;;;15.45;9.05;;;;;;;17.57;34.56;100981.84;5022223;28;20303;-70
2022/12/16 03:39:28;;;;;;;14.38;9.48;;;;;;;17.57;34.14;100973.09;5023874;28;20033;-72
2022/12/16 03:41:55;;;;;;;13.98;9.18;;;;;;;17.64;34.40;100995.41;5024370;28;20067;-71
2022/12/16 03:44:26;;;;;;;16.27;9.38;;;;;;;17.62;34.65;100989.38;5024127;28;20034;-71
2022/12/16 03:46:52;;;;;;;15.10;9.40;;;;;;;17.61;34.33;100993.00;5023721;28;20087;-72
2022/12/16 03:49:17;;;;;;;12.95;8.65;;;;;;;17.62;34.19;100999.09;5023956;28;20033;-70
2022/12/16 03:51:43;;;;;;;12.25;9.10;;;;;;;17.62;34.52;101007.84;5023603;28;20041;-72
2022/12/16 03:54:08;;;;;;;17.77;9.82;;;;;;;17.60;34.54;101001.84;5037528;28;20556;-69
2022/12/16 03:56:33;;;;;;;12.45;8.85;;;;;;;17.57;34.64;100989.75;5023741;28;20087;-71
2022/12/16 03:58:59;;;;;;;13.27;9.23;;;;;;;17.60;34.67;100999.22;5023667;28;20032;-71
2022/12/16 04:01:24;;;;;;;11.52;8.82;;;;;;;17.56;34.51;100995.97;5023718;28;20033;-72
2022/12/16 04:03:49;;;;;;;13.45;9.15;;;;;;;17.60;34.77;101004.47;5023655;28;20402;-73
2022/12/16 04:06:17;;;;;;;14.30;9.43;;;;;;;17.58;34.78;101004.59;5023924;28;20444;-72
2022/12/16 04:08:45;;;;;;;17.63;10.45;;;;;;;17.58;34.74;101017.78;5022682;28;20052;-72
2022/12/16 04:25:02;;;;;;;14.60;8.80;;;;;;;17.60;34.94;101033.47;5023211;28;20035;-72
2022/12/16 04:27:28;;;;;;;18.23;9.30;;;;;;;17.56;34.97;101027.59;5022931;28;20033;-69
